createdAt,value
2018-07-04T00:00:01.985Z,90.42
2018-07-04T00:01:01.992Z,90.52
2018-07-04T00:02:01.993Z,90.99
2018-07-04T00:03:01.997Z,90.80
2018-07-04T00:04:01.999Z,91.09
2018-07-04T00:05:02.004Z,91.09
2018-07-04T00:06:02.007Z,90.42
2018-07-04T00:07:02.010Z,91.28
2018-07-04T00:08:02.013Z,90.90
2018-07-04T00:09:02.017Z,91.28
2018-07-04T00:10:02.022Z,91.24
2018-07-04T00:11:02.027Z,91.19
2018-07-04T00:12:02.027Z,91.86
2018-07-04T00:13:02.031Z,92.00
2018-07-04T00:14:02.040Z,91.91
2018-07-04T00:15:02.038Z,91.72
2018-07-04T00:16:02.041Z,91.62
2018-07-04T00:17:02.043Z,91.52
2018-07-04T00:18:02.048Z,91.52
2018-07-04T00:19:02.050Z,91.81
2018-07-04T00:20:02.054Z,91.62
2018-07-04T00:21:02.081Z,91.52
2018-07-04T00:22:02.060Z,91.62
2018-07-04T00:23:02.065Z,91.42
2018-07-04T00:24:02.068Z,92.00
2018-07-04T00:25:02.077Z,92.19
2018-07-04T00:26:02.074Z,92.29
2018-07-04T00:27:02.080Z,91.42
2018-07-04T00:28:02.080Z,92.19
2018-07-04T00:29:02.084Z,92.10
2018-07-04T00:30:02.088Z,91.42
2018-07-04T00:31:02.091Z,91.52
2018-07-04T00:32:02.094Z,92.39
2018-07-04T00:33:02.097Z,92.00
2018-07-04T00:34:02.100Z,91.52
2018-07-04T00:35:02.105Z,92.10
2018-07-04T00:36:02.107Z,91.91
2018-07-04T00:37:02.110Z,92.19
2018-07-04T00:38:02.114Z,92.39
2018-07-04T00:39:02.120Z,91.52
2018-07-04T00:40:02.120Z,91.52
2018-07-04T00:41:02.122Z,91.62
2018-07-04T00:42:02.129Z,91.24
2018-07-04T00:43:02.130Z,91.62
2018-07-04T00:44:02.132Z,90.66
2018-07-04T00:45:02.135Z,91.62
2018-07-04T00:46:02.142Z,91.72
2018-07-04T00:47:02.142Z,91.62
2018-07-04T00:48:02.146Z,91.24
2018-07-04T00:49:02.148Z,90.95
2018-07-04T00:50:02.152Z,91.42
2018-07-04T00:51:02.156Z,91.52
2018-07-04T00:52:02.159Z,91.52
2018-07-04T00:53:02.160Z,92.00
2018-07-04T00:54:02.164Z,92.00
2018-07-04T00:55:02.166Z,91.42
2018-07-04T00:56:02.169Z,91.91
2018-07-04T00:57:02.172Z,92.39
2018-07-04T00:58:02.176Z,92.10
2018-07-04T00:59:02.181Z,91.57
2018-07-04T01:00:02.182Z,92.00
2018-07-04T01:01:02.188Z,92.63
2018-07-04T01:02:02.189Z,93.30
2018-07-04T01:03:02.192Z,92.63
2018-07-04T01:04:02.195Z,92.91
2018-07-04T01:05:02.197Z,92.44
2018-07-04T01:06:02.201Z,92.63
2018-07-04T01:07:02.203Z,93.11
2018-07-04T01:08:02.206Z,92.34
2018-07-04T01:09:02.211Z,91.96
2018-07-04T01:10:02.213Z,92.05
2018-07-04T01:11:02.228Z,92.34
2018-07-04T01:12:02.218Z,92.34
2018-07-04T01:13:02.222Z,92.72
2018-07-04T01:14:02.225Z,92.63
2018-07-04T01:15:02.230Z,92.91
2018-07-04T01:16:02.231Z,93.11
2018-07-04T01:17:02.233Z,93.35
2018-07-04T01:18:02.237Z,93.30
2018-07-04T01:19:02.239Z,93.16
2018-07-04T01:20:02.243Z,93.44
2018-07-04T01:21:02.247Z,93.44
2018-07-04T01:22:02.248Z,93.26
2018-07-04T01:23:02.251Z,93.73
2018-07-04T01:24:02.254Z,93.73
2018-07-04T01:25:02.257Z,93.44
2018-07-04T01:26:02.260Z,93.44
2018-07-04T01:27:02.263Z,93.44
2018-07-04T01:28:02.265Z,94.02
2018-07-04T01:29:02.266Z,94.02
2018-07-04T01:30:02.271Z,94.02
2018-07-04T01:31:02.273Z,94.12
2018-07-04T01:32:02.277Z,93.93
2018-07-04T01:33:02.279Z,93.63
2018-07-04T01:34:02.282Z,93.73
2018-07-04T01:35:02.286Z,93.44
2018-07-04T01:36:02.287Z,93.06
2018-07-04T01:37:02.289Z,94.02
2018-07-04T01:38:02.293Z,93.83
2018-07-04T01:39:02.294Z,93.83
2018-07-04T01:40:02.296Z,93.73
2018-07-04T01:41:02.301Z,93.54
2018-07-04T01:42:02.303Z,93.83
2018-07-04T01:43:02.306Z,93.44
2018-07-04T01:44:02.308Z,93.63
2018-07-04T01:45:02.311Z,92.87
2018-07-04T01:46:02.312Z,93.44
2018-07-04T01:47:02.321Z,93.54
2018-07-04T01:48:02.319Z,93.06
2018-07-04T01:49:02.320Z,93.54
2018-07-04T01:50:02.325Z,92.87
2018-07-04T01:51:02.330Z,92.77
2018-07-04T01:52:02.328Z,92.58
2018-07-04T01:53:02.332Z,92.68
2018-07-04T01:54:02.334Z,92.49
2018-07-04T01:55:02.337Z,92.87
2018-07-04T01:56:02.339Z,92.68
2018-07-04T01:57:02.341Z,92.87
2018-07-04T01:58:02.346Z,92.77
2018-07-04T01:59:02.347Z,92.77
2018-07-04T02:00:02.357Z,93.35
2018-07-04T02:01:02.351Z,93.16
2018-07-04T02:02:02.357Z,92.68
2018-07-04T02:03:02.358Z,92.87
2018-07-04T02:04:02.359Z,93.26
2018-07-04T02:05:02.362Z,93.49
2018-07-04T02:06:02.364Z,93.49
2018-07-04T02:07:02.368Z,93.69
2018-07-04T02:08:02.369Z,93.30
2018-07-04T02:09:02.373Z,92.92
2018-07-04T02:10:02.377Z,93.16
2018-07-04T02:11:02.377Z,93.21
2018-07-04T02:12:02.378Z,93.06
2018-07-04T02:13:02.382Z,93.06
2018-07-04T02:14:02.384Z,92.58
2018-07-04T02:15:02.413Z,92.68
2018-07-04T02:16:02.389Z,92.68
2018-07-04T02:17:02.393Z,92.10
2018-07-04T02:18:02.394Z,91.82
2018-07-04T02:19:02.398Z,91.91
2018-07-04T02:20:02.400Z,91.91
2018-07-04T02:21:02.400Z,91.91
2018-07-04T02:22:02.404Z,92.58
2018-07-04T02:23:02.406Z,92.15
2018-07-04T02:24:02.410Z,92.25
2018-07-04T02:25:02.411Z,92.58
2018-07-04T02:26:02.415Z,92.44
2018-07-04T02:27:02.416Z,92.77
2018-07-04T02:28:02.421Z,92.58
2018-07-04T02:29:02.421Z,92.73
2018-07-04T02:30:02.423Z,92.58
2018-07-04T02:31:02.429Z,91.91
2018-07-04T02:32:02.428Z,91.53
2018-07-04T02:33:02.431Z,91.53
2018-07-04T02:34:02.433Z,92.01
2018-07-04T02:35:02.437Z,92.10
2018-07-04T02:36:02.439Z,92.20
2018-07-04T02:37:02.440Z,92.01
2018-07-04T02:38:02.445Z,91.82
2018-07-04T02:39:02.447Z,91.43
2018-07-04T02:40:02.451Z,91.63
2018-07-04T02:41:02.450Z,91.43
2018-07-04T02:42:02.453Z,90.76
2018-07-04T02:43:02.455Z,91.24
2018-07-04T02:44:02.457Z,91.34
2018-07-04T02:45:02.483Z,90.76
2018-07-04T02:46:02.463Z,90.67
2018-07-04T02:47:02.466Z,90.86
2018-07-04T02:48:02.469Z,90.38
2018-07-04T02:49:02.469Z,90.09
2018-07-04T02:50:02.474Z,90.09
2018-07-04T02:51:02.479Z,89.90
2018-07-04T02:52:02.478Z,90.00
2018-07-04T02:53:02.480Z,90.09
2018-07-04T02:54:02.483Z,90.09
2018-07-04T02:55:02.486Z,90.09
2018-07-04T02:56:02.489Z,89.90
2018-07-04T02:57:02.491Z,90.00
2018-07-04T02:58:02.493Z,90.09
2018-07-04T02:59:02.496Z,90.28
2018-07-04T03:00:02.497Z,89.80
2018-07-04T03:01:02.501Z,90.00
2018-07-04T03:02:02.554Z,90.19
2018-07-04T03:03:02.513Z,90.09
2018-07-04T03:04:02.510Z,90.09
2018-07-04T03:05:02.512Z,90.09
2018-07-04T03:06:02.514Z,89.42
2018-07-04T03:07:02.516Z,89.51
2018-07-04T03:08:02.519Z,90.09
2018-07-04T03:09:02.522Z,90.09
2018-07-04T03:10:02.525Z,90.19
2018-07-04T03:11:02.527Z,90.19
2018-07-04T03:12:02.529Z,90.47
2018-07-04T03:13:02.532Z,90.57
2018-07-04T03:14:02.544Z,90.53
2018-07-04T03:15:02.536Z,90.47
2018-07-04T03:16:02.539Z,90.81
2018-07-04T03:17:02.545Z,90.62
2018-07-04T03:18:02.545Z,90.72
2018-07-04T03:19:02.547Z,90.91
2018-07-04T03:20:02.547Z,90.62
2018-07-04T03:21:02.549Z,90.91
2018-07-04T03:22:02.555Z,91.10
2018-07-04T03:23:02.557Z,91.00
2018-07-04T03:24:02.557Z,90.53
2018-07-04T03:25:02.570Z,90.57
2018-07-04T03:26:02.563Z,90.09
2018-07-04T03:27:02.565Z,90.19
2018-07-04T03:28:02.568Z,89.32
2018-07-04T03:29:02.568Z,89.51
2018-07-04T03:30:02.572Z,89.42
2018-07-04T03:31:02.575Z,89.32
2018-07-04T03:32:02.576Z,89.42
2018-07-04T03:33:02.637Z,89.51
2018-07-04T03:34:02.587Z,89.32
2018-07-04T03:35:02.583Z,89.42
2018-07-04T03:36:02.589Z,89.51
2018-07-04T03:37:02.588Z,88.75
2018-07-04T03:38:02.591Z,88.56
2018-07-04T03:39:02.592Z,89.13
2018-07-04T03:40:02.599Z,89.28
2018-07-04T03:41:02.600Z,89.37
2018-07-04T03:42:02.601Z,89.42
2018-07-04T03:43:02.606Z,89.42
2018-07-04T03:44:02.606Z,89.51
2018-07-04T03:45:02.605Z,89.51
2018-07-04T03:46:02.610Z,89.04
2018-07-04T03:47:02.613Z,89.51
2018-07-04T03:48:02.621Z,89.13
2018-07-04T03:49:02.616Z,89.42
2018-07-04T03:50:02.626Z,89.04
2018-07-04T03:51:02.622Z,89.04
2018-07-04T03:52:02.625Z,88.75
2018-07-04T03:53:02.626Z,88.75
2018-07-04T03:54:02.629Z,88.75
2018-07-04T03:55:02.632Z,88.75
2018-07-04T03:56:02.634Z,88.75
2018-07-04T03:57:02.636Z,88.65
2018-07-04T03:58:02.685Z,88.75
2018-07-04T03:59:02.642Z,88.75
2018-07-04T04:00:02.644Z,88.75
2018-07-04T04:01:02.647Z,88.94
2018-07-04T04:02:02.649Z,89.37
2018-07-04T04:03:02.652Z,89.23
2018-07-04T04:04:02.654Z,89.28
2018-07-04T04:05:02.655Z,89.13
2018-07-04T04:06:02.659Z,89.57
2018-07-04T04:07:02.660Z,89.42
2018-07-04T04:08:02.664Z,89.18
2018-07-04T04:09:02.665Z,89.51
2018-07-04T04:10:02.669Z,89.04
2018-07-04T04:11:02.671Z,88.84
2018-07-04T04:12:02.673Z,89.04
2018-07-04T04:13:02.675Z,88.37
2018-07-04T04:14:02.679Z,88.17
2018-07-04T04:15:02.681Z,88.37
2018-07-04T04:16:02.684Z,88.37
2018-07-04T04:17:02.686Z,88.08
2018-07-04T04:18:02.688Z,88.41
2018-07-04T04:19:02.694Z,87.64
2018-07-04T04:20:02.693Z,88.02
2018-07-04T04:21:02.698Z,87.45
2018-07-04T04:22:02.701Z,87.45
2018-07-04T04:23:02.702Z,86.88
2018-07-04T04:24:02.705Z,87.16
2018-07-04T04:25:02.706Z,86.68
2018-07-04T04:26:02.709Z,86.97
2018-07-04T04:27:02.767Z,86.88
2018-07-04T04:28:02.715Z,86.68
2018-07-04T04:29:02.718Z,86.68
2018-07-04T04:30:02.721Z,86.49
2018-07-04T04:31:02.729Z,86.40
2018-07-04T04:32:02.725Z,86.01
2018-07-04T04:33:02.729Z,86.05
2018-07-04T04:34:02.743Z,86.15
2018-07-04T04:35:02.735Z,85.96
2018-07-04T04:36:02.737Z,85.48
2018-07-04T04:37:02.741Z,85.48
2018-07-04T04:38:02.743Z,85.67
2018-07-04T04:39:02.746Z,85.48
2018-07-04T04:40:02.748Z,85.48
2018-07-04T04:41:02.753Z,85.67
2018-07-04T04:42:02.755Z,85.58
2018-07-04T04:43:02.758Z,84.71
2018-07-04T04:44:02.760Z,85.19
2018-07-04T04:45:02.764Z,85.00
2018-07-04T04:46:02.768Z,85.00
2018-07-04T04:47:02.768Z,85.00
2018-07-04T04:48:02.773Z,84.91
2018-07-04T04:49:02.776Z,85.19
2018-07-04T04:50:02.782Z,85.10
2018-07-04T04:51:02.783Z,85.24
2018-07-04T04:52:02.784Z,85.00
2018-07-04T04:53:02.789Z,84.81
2018-07-04T04:54:02.791Z,85.04
2018-07-04T04:55:02.795Z,84.91
2018-07-04T04:56:02.797Z,84.52
2018-07-04T04:57:02.801Z,84.85
2018-07-04T04:58:02.804Z,84.91
2018-07-04T04:59:02.807Z,84.61
2018-07-04T05:00:02.812Z,84.52
2018-07-04T05:01:02.812Z,84.52
2018-07-04T05:02:02.817Z,84.61
2018-07-04T05:03:02.822Z,84.91
2018-07-04T05:04:02.823Z,85.00
2018-07-04T05:05:02.826Z,84.85
2018-07-04T05:06:02.830Z,84.71
2018-07-04T05:07:02.832Z,84.71
2018-07-04T05:08:02.836Z,84.23
2018-07-04T05:09:02.839Z,84.18
2018-07-04T05:10:02.843Z,84.37
2018-07-04T05:11:02.845Z,84.85
2018-07-04T05:12:02.848Z,84.42
2018-07-04T05:13:02.851Z,84.42
2018-07-04T05:14:02.857Z,84.42
2018-07-04T05:15:02.864Z,84.71
2018-07-04T05:16:02.862Z,84.33
2018-07-04T05:17:02.868Z,84.61
2018-07-04T05:18:02.869Z,84.81
2018-07-04T05:19:02.874Z,84.81
2018-07-04T05:20:02.875Z,85.10
2018-07-04T05:21:02.879Z,84.42
2018-07-04T05:22:02.883Z,84.56
2018-07-04T05:23:02.890Z,84.61
2018-07-04T05:24:02.889Z,83.94
2018-07-04T05:25:02.892Z,84.52
2018-07-04T05:26:02.895Z,84.47
2018-07-04T05:27:02.899Z,83.98
2018-07-04T05:28:02.902Z,83.98
2018-07-04T05:29:02.904Z,84.18
2018-07-04T05:30:02.909Z,83.70
2018-07-04T05:31:02.913Z,83.41
2018-07-04T05:32:02.916Z,83.80
2018-07-04T05:33:02.919Z,83.89
2018-07-04T05:34:02.923Z,83.41
2018-07-04T05:35:02.970Z,83.54
2018-07-04T05:36:02.929Z,82.97
2018-07-04T05:37:02.932Z,83.12
2018-07-04T05:38:02.936Z,83.16
2018-07-04T05:39:02.942Z,82.59
2018-07-04T05:40:02.942Z,82.40
2018-07-04T05:41:02.952Z,82.49
2018-07-04T05:42:02.954Z,82.30
2018-07-04T05:43:02.954Z,82.30
2018-07-04T05:44:02.957Z,82.40
2018-07-04T05:45:02.962Z,82.78
2018-07-04T05:46:03.028Z,82.68
2018-07-04T05:47:02.969Z,82.87
2018-07-04T05:48:02.973Z,81.96
2018-07-04T05:49:02.979Z,81.86
2018-07-04T05:50:03.040Z,81.48
2018-07-04T05:51:02.984Z,80.99
2018-07-04T05:52:02.988Z,81.38
2018-07-04T05:53:02.992Z,80.99
2018-07-04T05:54:02.996Z,80.36
2018-07-04T05:55:03.000Z,80.36
2018-07-04T05:56:03.002Z,80.75
2018-07-04T05:57:03.008Z,80.46
2018-07-04T05:58:03.011Z,80.84
2018-07-04T05:59:03.062Z,80.55
2018-07-04T06:00:03.019Z,80.36
2018-07-04T06:01:03.023Z,80.36
2018-07-04T06:02:03.027Z,80.36
2018-07-04T06:03:03.035Z,80.17
2018-07-04T06:04:03.035Z,80.84
2018-07-04T06:05:03.041Z,80.84
2018-07-04T06:06:03.045Z,80.94
2018-07-04T06:07:03.048Z,80.75
2018-07-04T06:08:03.053Z,80.21
2018-07-04T06:09:03.104Z,80.02
2018-07-04T06:10:03.061Z,79.63
2018-07-04T06:11:03.067Z,80.60
2018-07-04T06:12:03.071Z,79.48
2018-07-04T06:13:03.074Z,79.77
2018-07-04T06:14:03.080Z,79.38
2018-07-04T06:15:03.136Z,79.10
2018-07-04T06:16:03.089Z,79.19
2018-07-04T06:17:03.113Z,79.00
2018-07-04T06:18:03.098Z,78.81
2018-07-04T06:19:03.104Z,79.58
2018-07-04T06:20:03.108Z,79.00
2018-07-04T06:21:03.112Z,79.19
2018-07-04T06:22:03.119Z,78.61
2018-07-04T06:23:03.124Z,79.13
2018-07-04T06:24:03.128Z,78.52
2018-07-04T06:25:03.136Z,78.61
2018-07-04T06:26:03.139Z,79.19
2018-07-04T06:27:03.145Z,79.10
2018-07-04T06:28:03.148Z,79.28
2018-07-04T06:29:03.154Z,79.38
2018-07-04T06:30:03.159Z,78.71
2018-07-04T06:31:03.165Z,79.10
2018-07-04T06:32:03.167Z,78.90
2018-07-04T06:33:03.173Z,79.00
2018-07-04T06:34:03.180Z,78.71
2018-07-04T06:35:03.186Z,78.71
2018-07-04T06:36:03.191Z,78.90
2018-07-04T06:37:03.195Z,78.90
2018-07-04T06:38:03.199Z,78.61
2018-07-04T06:39:03.209Z,78.58
2018-07-04T06:40:03.211Z,78.77
2018-07-04T06:41:03.216Z,78.77
2018-07-04T06:42:03.221Z,79.25
2018-07-04T06:43:03.228Z,78.81
2018-07-04T06:44:03.230Z,78.52
2018-07-04T06:45:03.239Z,78.33
2018-07-04T06:46:03.242Z,77.98
2018-07-04T06:47:03.248Z,77.50
2018-07-04T06:48:03.253Z,77.25
2018-07-04T06:49:03.318Z,77.06
2018-07-04T06:50:03.262Z,76.61
2018-07-04T06:51:03.271Z,76.13
2018-07-04T06:52:03.274Z,75.36
2018-07-04T06:53:03.282Z,75.36
2018-07-04T06:54:03.340Z,75.36
2018-07-04T06:55:03.292Z,75.30
2018-07-04T06:56:03.297Z,74.82
2018-07-04T06:57:03.305Z,74.24
2018-07-04T06:58:03.309Z,74.62
2018-07-04T06:59:03.316Z,75.01
2018-07-04T07:00:03.320Z,74.33
2018-07-04T07:01:03.327Z,74.43
2018-07-04T07:02:03.335Z,74.27
2018-07-04T07:03:03.340Z,73.79
2018-07-04T07:04:03.345Z,72.58
2018-07-04T07:05:03.353Z,72.09
2018-07-04T07:06:03.363Z,72.19
2018-07-04T07:07:03.366Z,71.06
2018-07-04T07:08:03.372Z,70.94
2018-07-04T07:09:03.383Z,72.67
2018-07-04T07:10:03.390Z,72.77
2018-07-04T07:11:03.394Z,72.63
2018-07-04T07:12:03.400Z,72.86
2018-07-04T07:13:03.409Z,73.11
2018-07-04T07:14:03.414Z,73.31
2018-07-04T07:15:03.422Z,72.77
2018-07-04T07:16:03.430Z,71.51
2018-07-04T07:17:03.437Z,71.32
2018-07-04T07:18:03.443Z,71.42
2018-07-04T07:19:03.451Z,71.55
2018-07-04T07:20:03.457Z,70.97
2018-07-04T07:21:03.518Z,70.48
2018-07-04T07:22:03.474Z,70.48
2018-07-04T07:23:03.479Z,69.62
2018-07-04T07:24:03.486Z,69.32
2018-07-04T07:25:03.493Z,69.04
2018-07-04T07:26:03.503Z,68.98
2018-07-04T07:27:03.510Z,70.10
2018-07-04T07:28:03.516Z,71.16
2018-07-04T07:29:03.523Z,71.06
2018-07-04T07:30:03.532Z,71.16
2018-07-04T07:31:03.540Z,70.10
2018-07-04T07:32:03.579Z,69.71
2018-07-04T07:33:03.554Z,68.65
2018-07-04T07:34:03.617Z,68.65
2018-07-04T07:35:03.572Z,69.81
2018-07-04T07:36:03.578Z,70.10
2018-07-04T07:37:03.585Z,69.84
2018-07-04T07:38:03.593Z,68.68
2018-07-04T07:39:03.601Z,66.33
2018-07-04T07:40:03.611Z,66.82
2018-07-04T07:41:03.620Z,66.72
2018-07-04T07:42:03.650Z,64.85
2018-07-04T07:43:03.634Z,61.26
2018-07-04T07:44:03.644Z,57.25
2018-07-04T07:45:03.651Z,57.48
2018-07-04T07:46:03.660Z,59.72
2018-07-04T07:47:03.669Z,62.01
2018-07-04T07:48:03.677Z,63.66
2018-07-04T07:49:03.688Z,63.66
2018-07-04T07:50:03.698Z,64.31
2018-07-04T07:51:03.707Z,65.56
2018-07-04T07:52:03.717Z,63.85
2018-07-04T07:53:03.727Z,61.85
2018-07-04T07:54:03.776Z,61.21
2018-07-04T07:55:03.751Z,60.17
2018-07-04T07:56:03.758Z,59.03
2018-07-04T07:57:03.768Z,57.54
2018-07-04T07:58:03.778Z,55.69
2018-07-04T07:59:03.788Z,55.24
2018-07-04T08:00:03.799Z,54.29
2018-07-04T08:01:03.812Z,53.45
2018-07-04T08:02:03.822Z,52.92
2018-07-04T08:03:03.837Z,51.19
2018-07-04T08:04:03.845Z,50.02
2018-07-04T08:05:03.859Z,49.66
2018-07-04T08:06:03.873Z,49.07
2018-07-04T08:07:03.885Z,50.07
2018-07-04T08:08:03.897Z,48.51
2018-07-04T08:09:03.911Z,48.97
2018-07-04T08:10:03.926Z,50.12
2018-07-04T08:11:03.939Z,50.19
2018-07-04T08:12:03.952Z,51.14
2018-07-04T08:13:03.968Z,51.89
2018-07-04T08:14:03.980Z,52.45
2018-07-04T08:15:03.995Z,53.08
2018-07-04T08:16:04.009Z,53.35
2018-07-04T08:17:04.027Z,51.82
2018-07-04T08:18:04.037Z,51.75
2018-07-04T08:19:04.051Z,50.46
2018-07-04T08:20:04.065Z,48.85
2018-07-04T08:21:04.078Z,47.68
2018-07-04T08:22:04.094Z,46.66
2018-07-04T08:23:04.107Z,45.78
2018-07-04T08:24:04.121Z,45.46
2018-07-04T08:25:04.137Z,46.26
2018-07-04T08:26:04.151Z,45.39
2018-07-04T08:27:04.165Z,45.07
2018-07-04T08:28:04.180Z,45.97
2018-07-04T08:29:04.193Z,46.49
2018-07-04T08:30:04.212Z,47.36
2018-07-04T08:31:04.224Z,47.27
2018-07-04T08:32:04.239Z,46.61
2018-07-04T08:33:04.257Z,46.90
2018-07-04T08:34:04.268Z,46.24
2018-07-04T08:35:04.287Z,44.87
2018-07-04T08:36:04.299Z,44.12
2018-07-04T08:37:04.316Z,43.07
2018-07-04T08:38:04.330Z,43.75
2018-07-04T08:39:04.349Z,42.36
2018-07-04T08:40:04.361Z,42.65
2018-07-04T08:41:04.405Z,43.90
2018-07-04T08:42:04.392Z,43.82
2018-07-04T08:43:04.409Z,44.09
2018-07-04T08:44:04.423Z,44.51
2018-07-04T08:45:04.443Z,45.83
2018-07-04T08:46:04.456Z,45.05
2018-07-04T08:47:04.477Z,43.80
2018-07-04T08:48:04.488Z,43.85
2018-07-04T08:49:04.504Z,43.24
2018-07-04T08:50:04.520Z,44.12
2018-07-04T08:51:04.536Z,43.95
2018-07-04T08:52:04.552Z,43.95
2018-07-04T08:53:04.568Z,43.07
2018-07-04T08:54:04.582Z,44.12
2018-07-04T08:55:04.600Z,44.12
2018-07-04T08:56:04.615Z,45.25
2018-07-04T08:57:04.632Z,44.51
2018-07-04T08:58:04.650Z,42.87
2018-07-04T08:59:04.664Z,42.40
2018-07-04T09:00:04.679Z,42.40
2018-07-04T09:01:04.697Z,41.66
2018-07-04T09:02:04.713Z,41.25
2018-07-04T09:03:04.732Z,42.94
2018-07-04T09:04:04.746Z,43.82
2018-07-04T09:05:04.761Z,43.26
2018-07-04T09:06:04.778Z,41.83
2018-07-04T09:07:04.795Z,41.36
2018-07-04T09:08:04.809Z,40.95
2018-07-04T09:09:04.827Z,41.33
2018-07-04T09:10:04.844Z,43.82
2018-07-04T09:11:04.858Z,43.71
2018-07-04T09:12:04.876Z,44.76
2018-07-04T09:13:04.892Z,45.42
2018-07-04T09:14:04.910Z,45.25
2018-07-04T09:15:04.928Z,44.27
2018-07-04T09:16:04.940Z,44.07
2018-07-04T09:17:04.958Z,43.02
2018-07-04T09:18:04.973Z,42.07
2018-07-04T09:19:04.989Z,41.58
2018-07-04T09:20:05.004Z,40.72
2018-07-04T09:21:05.021Z,40.72
2018-07-04T09:22:05.036Z,40.06
2018-07-04T09:23:05.055Z,39.20
2018-07-04T09:24:05.067Z,39.90
2018-07-04T09:25:05.084Z,40.47
2018-07-04T09:26:05.099Z,40.39
2018-07-04T09:27:05.118Z,40.19
2018-07-04T09:28:05.131Z,39.82
2018-07-04T09:29:05.146Z,39.14
2018-07-04T09:30:05.163Z,37.98
2018-07-04T09:31:05.179Z,37.02
2018-07-04T09:32:05.194Z,35.73
2018-07-04T09:33:05.211Z,37.67
2018-07-04T09:34:05.225Z,39.14
2018-07-04T09:35:05.244Z,39.16
2018-07-04T09:36:05.258Z,38.12
2018-07-04T09:37:05.276Z,38.71
2018-07-04T09:38:05.289Z,38.43
2018-07-04T09:39:05.306Z,37.98
2018-07-04T09:40:05.322Z,35.37
2018-07-04T09:41:05.338Z,34.08
2018-07-04T09:42:05.354Z,35.04
2018-07-04T09:43:05.370Z,35.14
2018-07-04T09:44:05.385Z,35.45
2018-07-04T09:45:05.402Z,35.47
2018-07-04T09:46:05.419Z,34.80
2018-07-04T09:47:05.434Z,33.94
2018-07-04T09:48:05.451Z,33.74
2018-07-04T09:49:05.467Z,33.56
2018-07-04T09:50:05.536Z,33.64
2018-07-04T09:51:05.499Z,35.02
2018-07-04T09:52:05.515Z,34.83
2018-07-04T09:53:05.530Z,34.72
2018-07-04T09:54:05.548Z,35.88
2018-07-04T09:55:05.564Z,36.16
2018-07-04T09:56:05.580Z,37.51
2018-07-04T09:57:05.602Z,37.52
2018-07-04T09:58:05.614Z,37.19
2018-07-04T09:59:05.632Z,38.76
2018-07-04T10:00:05.646Z,39.43
2018-07-04T10:01:05.662Z,39.04
2018-07-04T10:02:05.680Z,38.10
2018-07-04T10:03:05.695Z,37.79
2018-07-04T10:04:05.711Z,37.41
2018-07-04T10:05:05.731Z,37.12
2018-07-04T10:06:05.745Z,37.39
2018-07-04T10:07:05.761Z,37.61
2018-07-04T10:08:05.777Z,37.12
2018-07-04T10:09:05.794Z,36.57
2018-07-04T10:10:05.810Z,36.29
2018-07-04T10:11:05.828Z,35.72
2018-07-04T10:12:05.843Z,35.05
2018-07-04T10:13:05.862Z,33.67
2018-07-04T10:14:05.877Z,33.98
2018-07-04T10:15:05.893Z,33.31
2018-07-04T10:16:05.910Z,33.75
2018-07-04T10:17:05.927Z,35.55
2018-07-04T10:18:05.942Z,36.72
2018-07-04T10:19:05.959Z,36.45
2018-07-04T10:20:05.974Z,36.51
2018-07-04T10:21:05.992Z,37.00
2018-07-04T10:22:06.008Z,37.10
2018-07-04T10:23:06.025Z,37.12
2018-07-04T10:24:06.039Z,36.82
2018-07-04T10:25:06.058Z,36.82
2018-07-04T10:26:06.072Z,36.08
2018-07-04T10:27:06.090Z,35.99
2018-07-04T10:28:06.105Z,36.71
2018-07-04T10:29:06.121Z,37.87
2018-07-04T10:30:06.138Z,38.28
2018-07-04T10:31:06.154Z,37.52
2018-07-04T10:32:06.168Z,36.57
2018-07-04T10:33:06.186Z,35.44
2018-07-04T10:34:06.203Z,34.74
2018-07-04T10:35:06.217Z,35.50
2018-07-04T10:36:06.235Z,36.04
2018-07-04T10:37:06.251Z,36.71
2018-07-04T10:38:06.266Z,36.63
2018-07-04T10:39:06.284Z,36.53
2018-07-04T10:40:06.298Z,37.12
2018-07-04T10:41:06.313Z,37.39
2018-07-04T10:42:06.336Z,37.61
2018-07-04T10:43:06.347Z,38.98
2018-07-04T10:44:06.362Z,40.23
2018-07-04T10:45:06.378Z,39.28
2018-07-04T10:46:06.395Z,39.18
2018-07-04T10:47:06.410Z,40.21
2018-07-04T10:48:06.425Z,40.14
2018-07-04T10:49:06.442Z,39.96
2018-07-04T10:50:06.457Z,39.00
2018-07-04T10:51:06.475Z,38.55
2018-07-04T10:52:06.488Z,38.73
2018-07-04T10:53:06.504Z,38.82
2018-07-04T10:54:06.519Z,37.08
2018-07-04T10:55:06.536Z,36.30
2018-07-04T10:56:06.549Z,35.81
2018-07-04T10:57:06.564Z,35.68
2018-07-04T10:58:06.580Z,36.36
2018-07-04T10:59:06.597Z,35.81
2018-07-04T11:00:06.610Z,35.25
2018-07-04T11:01:06.626Z,34.41
2018-07-04T11:02:06.642Z,33.80
2018-07-04T11:03:06.658Z,34.77
2018-07-04T11:04:06.672Z,35.35
2018-07-04T11:05:06.689Z,36.80
2018-07-04T11:06:06.704Z,36.71
2018-07-04T11:07:06.718Z,37.49
2018-07-04T11:08:06.732Z,36.41
2018-07-04T11:09:06.748Z,36.51
2018-07-04T11:10:06.764Z,36.20
2018-07-04T11:11:06.778Z,37.69
2018-07-04T11:12:06.794Z,36.04
2018-07-04T11:13:06.810Z,35.94
2018-07-04T11:14:06.824Z,35.65
2018-07-04T11:15:06.839Z,35.75
2018-07-04T11:16:06.856Z,36.32
2018-07-04T11:17:06.983Z,36.61
2018-07-04T11:18:06.884Z,36.79
2018-07-04T11:19:06.899Z,37.55
2018-07-04T11:20:06.914Z,37.55
2018-07-04T11:21:06.928Z,37.47
2018-07-04T11:22:06.943Z,37.45
2018-07-04T11:23:06.958Z,38.43
2018-07-04T11:24:06.973Z,38.16
2018-07-04T11:25:06.993Z,37.85
2018-07-04T11:26:07.003Z,37.85
2018-07-04T11:27:07.017Z,37.37
2018-07-04T11:28:07.033Z,37.75
2018-07-04T11:29:07.044Z,38.30
2018-07-04T11:30:07.059Z,39.08
2018-07-04T11:31:07.075Z,37.32
2018-07-04T11:32:07.089Z,37.40
2018-07-04T11:33:07.103Z,37.99
2018-07-04T11:34:07.116Z,38.38
2018-07-04T11:35:07.132Z,39.14
2018-07-04T11:36:07.145Z,38.75
2018-07-04T11:37:07.160Z,38.26
2018-07-04T11:38:07.172Z,38.18
2018-07-04T11:39:07.188Z,37.79
2018-07-04T11:40:07.199Z,38.06
2018-07-04T11:41:07.214Z,38.45
2018-07-04T11:42:07.228Z,39.23
2018-07-04T11:43:07.241Z,39.62
2018-07-04T11:44:07.253Z,39.43
2018-07-04T11:45:07.268Z,39.92
2018-07-04T11:46:07.281Z,39.16
2018-07-04T11:47:07.295Z,39.16
2018-07-04T11:48:07.308Z,38.96
2018-07-04T11:49:07.325Z,38.89
2018-07-04T11:50:07.337Z,38.49
2018-07-04T11:51:07.348Z,38.67
2018-07-04T11:52:07.361Z,38.77
2018-07-04T11:53:07.388Z,39.04
2018-07-04T11:54:07.389Z,38.96
2018-07-04T11:55:07.401Z,39.16
2018-07-04T11:56:07.417Z,38.55
2018-07-04T11:57:07.502Z,38.75
2018-07-04T11:58:07.441Z,39.14
2018-07-04T11:59:07.453Z,38.77
2018-07-04T12:00:07.465Z,38.35
2018-07-04T12:01:07.479Z,39.45
2018-07-04T12:02:07.491Z,39.33
2018-07-04T12:03:07.505Z,39.04
2018-07-04T12:04:07.518Z,38.84
2018-07-04T12:05:07.530Z,38.65
2018-07-04T12:06:07.544Z,38.73
2018-07-04T12:07:07.561Z,39.22
2018-07-04T12:08:07.567Z,39.12
2018-07-04T12:09:07.581Z,39.02
2018-07-04T12:10:07.594Z,38.63
2018-07-04T12:11:07.608Z,38.35
2018-07-04T12:12:07.620Z,38.35
2018-07-04T12:13:07.632Z,37.40
2018-07-04T12:14:07.646Z,37.50
2018-07-04T12:15:07.657Z,37.79
2018-07-04T12:16:07.670Z,37.40
2018-07-04T12:17:07.683Z,37.70
2018-07-04T12:18:07.697Z,38.18
2018-07-04T12:19:07.708Z,38.18
2018-07-04T12:20:07.722Z,39.02
2018-07-04T12:21:07.735Z,39.51
2018-07-04T12:22:07.745Z,39.82
2018-07-04T12:23:07.760Z,40.09
2018-07-04T12:24:07.771Z,39.70
2018-07-04T12:25:07.784Z,39.61
2018-07-04T12:26:07.796Z,39.51
2018-07-04T12:27:07.810Z,39.90
2018-07-04T12:28:07.820Z,39.90
2018-07-04T12:29:07.833Z,39.70
2018-07-04T12:30:07.845Z,39.31
2018-07-04T12:31:07.859Z,39.41
2018-07-04T12:32:07.894Z,38.53
2018-07-04T12:33:07.883Z,38.82
2018-07-04T12:34:07.896Z,38.75
2018-07-04T12:35:07.908Z,38.53
2018-07-04T12:36:07.919Z,38.43
2018-07-04T12:37:07.932Z,38.43
2018-07-04T12:38:07.944Z,38.43
2018-07-04T12:39:07.959Z,38.65
2018-07-04T12:40:07.968Z,37.67
2018-07-04T12:41:07.980Z,37.67
2018-07-04T12:42:07.993Z,37.19
2018-07-04T12:43:08.007Z,37.38
2018-07-04T12:44:08.020Z,36.83
2018-07-04T12:45:08.030Z,36.55
2018-07-04T12:46:08.043Z,35.60
2018-07-04T12:47:08.089Z,35.97
2018-07-04T12:48:08.066Z,36.28
2018-07-04T12:49:08.078Z,35.40
2018-07-04T12:50:08.091Z,35.30
2018-07-04T12:51:08.113Z,35.40
2018-07-04T12:52:08.116Z,35.30